KMHKKFOE

Guest
Details From KMHK - Manhattan Rgnl
To KFOE - Forbes Fld
Flight Number -
Tags Routegen Generated
Created
Modified
Stats Distance 50 nm / 93 km
Max Altitude 100 ft / 30 m
Waypoints 5
Social Downloads 0
Likes 0
Share VATSIM

Download

Looking for another format? Having issues loading an existing format? Contact us
Advertisement - Login to hide

Notes

Departing runway 3 KMHK. Arriving runway 13 KFOE.

Route

KMHK +39.20_-096.60 +39.11_-096.17 +39.02_-095.74 KFOE

ID Type Via Altitude Latitude Longitude Leg Dist Tot Dist Heading (true) Name
O KMHK APT - 0 ft / 0 m 39.14713˚ -96.66347˚ - 0 nm - -
+39.20_-096.60 LATLON - 100 ft / 30 m 39.20272˚ -96.60370˚ 4 nm 4 nm 40° / 40° -
+39.11_-096.17 LATLON - 100 ft / 30 m 39.11068˚ -96.17253˚ 20 nm 25 nm 105° / 106° -
+39.02_-095.74 LATLON - 100 ft / 30 m 39.01863˚ -95.74137˚ 20 nm 46 nm 105° / 106° -
O KFOE APT - 0 ft / 0 m 38.96557˚ -95.67807˚ 4 nm 50 nm 137° / 137° -

Altitude Profile

Advertisement - Login to hide

KMHK

Details ICAO KMHK (MHK)
Name MANHATTAN RGNL
Region United States
Timezone America/Chicago (UTC-6.0)
Stats Elevation 1,057 ft / 322 m (AMSL)
Location 39.141466° -96.670598°
Runways 2
Magnetic Variation 3.132° E

METAR

KMHK 161452Z 22012KT 10SM CLR 03/M04 A2985 RMK AO2 SLP113 T00331039 53013

Decode

TAF

KMHK 161132Z 1612/1712 21011KT P6SM SKC FM162300 18007KT P6SM FEW150

Decode

Departure Runways

ID Width Length Bearing (true) Bearing (mag) Surface Threshold Offset Overrun Length
03 150 ft / 46 m 7,001 ft / 2,134 m 39.79° 36.66° Concrete 0 ft / 0 m 0 ft / 0 m
13 100 ft / 30 m 3,801 ft / 1,159 m 142.32° 139.19° Asphalt 0 ft / 0 m 0 ft / 0 m
21 150 ft / 46 m 7,001 ft / 2,134 m 219.80° 216.67° Concrete 0 ft / 0 m 0 ft / 0 m
31 100 ft / 30 m 3,801 ft / 1,159 m 322.33° 319.20° Asphalt 0 ft / 0 m 0 ft / 0 m

KFOE

Details ICAO KFOE (FOE)
Name FORBES FLD
Region United States
Timezone America/Chicago (UTC-6.0)
Stats Elevation 1,078 ft / 329 m (AMSL)
Location 38.950229° -95.663986°
Runways 2
Magnetic Variation 2.438° E

METAR

KFOE 161453Z 21012KT 10SM CLR 04/M03 A2986 RMK AO2 SLP116 T00391028 53008

Decode

TAF

KFOE 161132Z 1612/1712 20011KT P6SM SKC FM162300 17009KT P6SM SCT150

Decode

Destination Runways

ID Width Length Bearing (true) Bearing (mag) Surface Threshold Offset Overrun Length
03 151 ft / 46 m 7,007 ft / 2,136 m 39.70° 37.26° Concrete 0 ft / 0 m 1,001 ft / 305 m
13 200 ft / 61 m 12,814 ft / 3,906 m 137.16° 134.72° Concrete 0 ft / 0 m 151 ft / 46 m
21 151 ft / 46 m 7,007 ft / 2,136 m 219.71° 217.27° Concrete 0 ft / 0 m 1,001 ft / 305 m
31 200 ft / 61 m 12,814 ft / 3,906 m 317.18° 314.74° Concrete 0 ft / 0 m 151 ft / 46 m

Approach Navaids

Runway Type Ident Frequency Range Bearing (true) Bearing (mag) Slope Elevation
31 Localiser IFOE 110.10 MHz 18 nm / 33 km 317.15° 314.71° - 1,058 ft / 322 m (AMSL)
31 Glidescope IFOE 110.10 MHz 10 nm / 19 km 317.17° 314.73° 3.00° 1,035 ft / 315 m (AMSL)
31 DME IFOE 110.10 MHz 18 nm / 33 km - - - 1,068 ft / 326 m (AMSL)